Aeroporto :
LOGIN :

Iscrizione | Disclaimer

   EN    FR    IT 

 










Sommario :    VFR   VFR Marginale   IFR   IFR Intensivo   IFR Molto Intensivo
Visibilità : 
Base nubi : 
>= 8 km
>= 3000ft
5 / 8 km
1000 / 3000 ft
1500m / 5 km
500 / 1000 ft
800 / 1500m
200 / 500 ft
< 800m
< 200 ft
Simboli :   Temporali  Nebbia  Neve Forte  Precipitazioni Forti  Vento > 20 kt
SIGMETs :   Varie  Temporali  Ghiacco  Turbolenza  Onda orograficha  Ceneri Vulcaniche







- Altitudine del aeroporto : 465 ft
- Codice IATA : LEJ


EDDP - Leipzig Halle

ULTIMO METAR :
  • 221950Z 08007KT 9000 NSC 10/08 Q1028 NOSIG

METARs OBSOLETI :
  • 221920Z 09005KT CAVOK 10/08 Q1028 NOSIG
  • 221850Z 09007KT CAVOK 10/08 Q1028 NOSIG
  • 221820Z 08007KT 8000 NSC 11/08 Q1028 NOSIG
  • 221750Z 08008KT 8000 NSC 13/09 Q1028 NOSIG
  • 221720Z 07006KT CAVOK 14/10 Q1029 NOSIG

TAF TAF EDDP
Valido dal 22 a 18 ore il 23 a 18 ore UTC


221700Z 2218/2318 12007KT CAVOK
BECMG 2222/2224 20006KT
BECMG 2307/2309 30008KT
Nessun NOTAM noto per questo aeroporto.



MetMap, La meteo Aeronautica in un colpo d'occhio ! - Copyright ORBIFLY Dicembre 2007 - Disclaimer

ORBIFLY MET'MAP TEAM :

Programmazione e sviluppo : Alexandra Zaïnal
Concezione e sviluppo : Baudouin d'Aumeries
Co-Programmazione e sviluppo : Marc-Olivier Méhu
Supporto tecnico e logistico : Manuel Goepfert
Aiuto per la traduzione : Arnaldo La Scala

Contatto : metmap@orbifly.com




FONTI E CREDITI :

   NOAA